createdAt,value
2023-04-29T00:00:10.439Z,88.60
2023-04-29T00:02:44.801Z,88.60
2023-04-29T00:05:14.151Z,88.60
2023-04-29T00:07:44.182Z,88.60
2023-04-29T00:10:14.829Z,88.50
2023-04-29T00:12:43.866Z,88.30
2023-04-29T00:15:13.168Z,88.10
2023-04-29T00:17:43.718Z,87.90
2023-04-29T00:20:13.724Z,87.80
2023-04-29T00:22:42.733Z,87.80
2023-04-29T00:25:12.360Z,87.90
2023-04-29T00:27:41.946Z,88.00
2023-04-29T00:30:12.461Z,88.00
2023-04-29T00:32:41.483Z,88.00
2023-04-29T00:35:12.403Z,88.00
2023-04-29T00:37:41.375Z,88.00
2023-04-29T00:40:15.109Z,88.00
2023-04-29T00:42:44.304Z,88.00
2023-04-29T00:45:13.655Z,87.90
2023-04-29T00:47:42.740Z,88.10
2023-04-29T00:50:13.562Z,88.20
2023-04-29T00:52:44.279Z,88.20
2023-04-29T00:55:14.316Z,88.10
2023-04-29T00:57:43.579Z,88.10
2023-04-29T01:00:13.984Z,88.10
2023-04-29T01:02:43.400Z,88.00
2023-04-29T01:05:15.120Z,88.00
2023-04-29T01:07:52.812Z,88.00
2023-04-29T01:10:28.284Z,88.10
2023-04-29T01:13:06.881Z,88.10
2023-04-29T01:15:43.867Z,88.10
2023-04-29T01:18:20.581Z,87.90
2023-04-29T01:20:51.972Z,87.90
2023-04-29T01:23:21.275Z,87.80
2023-04-29T01:25:51.670Z,87.70
2023-04-29T01:28:41.991Z,87.60
2023-04-29T01:31:19.664Z,87.60
2023-04-29T01:33:55.929Z,87.60
2023-04-29T01:36:35.580Z,88.60
2023-04-29T01:39:13.690Z,87.70
2023-04-29T01:41:47.326Z,87.60
2023-04-29T01:44:28.510Z,87.50
2023-04-29T01:46:57.871Z,87.50
2023-04-29T01:49:37.391Z,87.50
2023-04-29T01:52:07.135Z,87.50
2023-04-29T01:54:36.953Z,87.60
2023-04-29T01:57:07.532Z,87.70
2023-04-29T01:59:45.865Z,87.50
2023-04-29T02:02:33.542Z,87.70
2023-04-29T02:05:12.253Z,87.50
2023-04-29T02:07:45.728Z,87.40
2023-04-29T02:10:14.952Z,87.40
2023-04-29T02:12:47.206Z,87.60
2023-04-29T02:15:17.489Z,87.50
2023-04-29T02:17:47.104Z,87.40
2023-04-29T02:20:16.681Z,87.50
2023-04-29T02:22:45.684Z,87.50
2023-04-29T02:25:14.848Z,87.40
2023-04-29T02:27:43.997Z,87.40
2023-04-29T02:30:14.745Z,87.40
2023-04-29T02:32:43.953Z,87.60
2023-04-29T02:35:12.972Z,87.50
2023-04-29T02:37:41.991Z,87.50
2023-04-29T02:40:11.691Z,87.50
2023-04-29T02:42:40.770Z,87.50
2023-04-29T02:45:11.011Z,87.60
2023-04-29T02:47:41.489Z,87.80
2023-04-29T02:50:10.825Z,87.80
2023-04-29T02:52:41.891Z,87.90
2023-04-29T02:55:11.152Z,87.90
2023-04-29T02:57:41.272Z,87.80
2023-04-29T03:00:11.536Z,87.70
2023-04-29T03:02:42.078Z,87.70
2023-04-29T03:05:11.655Z,87.60
2023-04-29T03:07:40.761Z,87.50
2023-04-29T03:10:11.636Z,87.50
2023-04-29T03:12:41.026Z,87.50
2023-04-29T03:15:10.812Z,87.60
2023-04-29T03:17:41.403Z,87.40
2023-04-29T03:20:11.749Z,87.40
2023-04-29T03:22:41.595Z,87.70
2023-04-29T03:25:11.642Z,87.80
2023-04-29T03:27:41.976Z,88.00
2023-04-29T03:30:12.156Z,88.20
2023-04-29T03:32:49.357Z,88.50
2023-04-29T03:35:18.420Z,88.70
2023-04-29T03:38:10.833Z,88.90
2023-04-29T03:40:41.135Z,88.80
2023-04-29T03:43:10.265Z,89.10
2023-04-29T03:45:39.310Z,89.20
2023-04-29T03:48:10.472Z,89.40
2023-04-29T03:50:39.564Z,89.50
2023-04-29T03:53:08.715Z,89.60
2023-04-29T03:55:37.716Z,89.70
2023-04-29T03:58:06.797Z,89.90
2023-04-29T04:00:36.235Z,90.00
2023-04-29T04:03:11.032Z,90.10
2023-04-29T04:05:40.825Z,90.20
2023-04-29T04:08:13.645Z,90.30
2023-04-29T04:11:03.073Z,90.30
2023-04-29T04:13:42.503Z,90.40
2023-04-29T04:16:12.101Z,90.40
2023-04-29T04:18:42.611Z,90.50
2023-04-29T04:21:12.951Z,90.60
2023-04-29T04:23:45.216Z,90.60
2023-04-29T04:26:17.563Z,90.70
2023-04-29T04:29:07.179Z,90.80
2023-04-29T04:31:44.932Z,90.80
2023-04-29T04:34:17.443Z,90.90
2023-04-29T04:36:48.498Z,91.40
2023-04-29T04:39:17.566Z,91.00
2023-04-29T04:41:47.060Z,91.10
2023-04-29T04:44:16.634Z,91.10
2023-04-29T04:47:06.837Z,91.20
2023-04-29T04:50:04.420Z,91.20
2023-04-29T04:52:33.736Z,91.20
2023-04-29T04:55:16.052Z,91.60
2023-04-29T04:57:48.364Z,91.30
2023-04-29T05:00:18.048Z,91.30
2023-04-29T05:02:47.327Z,91.30
2023-04-29T05:05:18.000Z,91.40
2023-04-29T05:07:47.395Z,91.40
2023-04-29T05:10:17.315Z,91.50
2023-04-29T05:12:50.962Z,91.50
2023-04-29T05:15:21.528Z,91.50
2023-04-29T05:17:53.159Z,91.50
2023-04-29T05:20:23.656Z,91.50
2023-04-29T05:22:52.723Z,91.60
2023-04-29T05:25:22.767Z,91.60
2023-04-29T05:27:51.811Z,91.60
2023-04-29T05:30:22.158Z,91.70
2023-04-29T05:32:51.403Z,91.70
2023-04-29T05:35:23.449Z,91.70
2023-04-29T05:37:52.483Z,91.80
2023-04-29T05:40:30.546Z,91.80
2023-04-29T05:43:17.545Z,91.80
2023-04-29T05:45:48.353Z,91.80
2023-04-29T05:48:17.488Z,91.80
2023-04-29T05:50:48.630Z,91.90
2023-04-29T05:53:17.639Z,91.90
2023-04-29T05:55:48.669Z,91.90
2023-04-29T05:58:18.792Z,92.00
2023-04-29T06:00:49.482Z,92.00
2023-04-29T06:03:23.522Z,92.00
2023-04-29T06:06:01.274Z,92.00
2023-04-29T06:08:42.865Z,92.10
2023-04-29T06:11:22.495Z,92.10
2023-04-29T06:13:51.571Z,92.10
2023-04-29T06:16:20.822Z,92.10
2023-04-29T06:18:50.305Z,92.20
2023-04-29T06:21:20.898Z,92.20
2023-04-29T06:23:49.973Z,92.20
2023-04-29T06:26:21.017Z,92.20
2023-04-29T06:28:50.122Z,92.30
2023-04-29T06:31:20.660Z,92.40
2023-04-29T06:33:51.376Z,92.50
2023-04-29T06:36:21.884Z,92.50
2023-04-29T06:39:20.239Z,92.60
2023-04-29T06:42:03.765Z,92.60
2023-04-29T06:44:45.046Z,92.60
2023-04-29T06:47:33.093Z,92.60
2023-04-29T06:50:22.481Z,92.60
2023-04-29T06:52:54.265Z,92.60
2023-04-29T06:55:23.323Z,92.60
2023-04-29T06:57:52.405Z,92.60
2023-04-29T07:00:22.963Z,92.70
2023-04-29T07:02:52.566Z,92.70
2023-04-29T07:05:21.723Z,92.70
2023-04-29T07:07:50.832Z,92.80
2023-04-29T07:10:22.220Z,92.80
2023-04-29T07:12:51.299Z,92.80
2023-04-29T07:15:20.393Z,92.90
2023-04-29T07:17:50.313Z,92.90
2023-04-29T07:20:21.864Z,93.00
2023-04-29T07:22:51.797Z,93.00
2023-04-29T07:25:23.056Z,93.00
2023-04-29T07:27:53.577Z,93.10
2023-04-29T07:30:23.393Z,93.00
2023-04-29T07:32:52.554Z,93.00
2023-04-29T07:35:21.782Z,93.00
2023-04-29T07:37:50.881Z,93.10
2023-04-29T07:40:21.516Z,93.10
2023-04-29T07:42:50.830Z,93.10
2023-04-29T07:45:20.167Z,93.00
2023-04-29T07:47:49.335Z,93.00
2023-04-29T07:50:18.504Z,93.00
2023-04-29T07:52:47.634Z,93.00
2023-04-29T07:55:19.091Z,92.90
2023-04-29T07:57:49.798Z,92.80
2023-04-29T08:00:20.833Z,92.80
2023-04-29T08:02:52.704Z,92.80
2023-04-29T08:05:22.609Z,92.80
2023-04-29T08:07:53.312Z,92.80
2023-04-29T08:10:23.296Z,92.70
2023-04-29T08:12:53.761Z,92.70
2023-04-29T08:15:24.703Z,92.60
2023-04-29T08:17:54.970Z,92.60
2023-04-29T08:20:24.082Z,92.60
2023-04-29T08:22:53.516Z,92.60
2023-04-29T08:25:22.702Z,92.60
2023-04-29T08:27:53.201Z,92.50
2023-04-29T08:30:22.337Z,92.60
2023-04-29T08:32:51.568Z,92.60
2023-04-29T08:35:20.971Z,92.60
2023-04-29T08:37:49.927Z,92.50
2023-04-29T08:40:19.175Z,92.50
2023-04-29T08:42:50.720Z,92.50
2023-04-29T08:45:24.208Z,92.50
2023-04-29T08:47:55.026Z,92.50
2023-04-29T08:50:25.400Z,92.40
2023-04-29T08:52:54.449Z,92.40
2023-04-29T08:55:23.445Z,92.40
2023-04-29T08:57:55.739Z,92.30
2023-04-29T09:00:26.799Z,92.30
2023-04-29T09:02:58.561Z,92.20
2023-04-29T09:05:28.409Z,92.10
2023-04-29T09:07:59.752Z,92.00
2023-04-29T09:10:28.728Z,92.00
2023-04-29T09:12:58.613Z,92.00
2023-04-29T09:15:29.091Z,91.90
2023-04-29T09:17:58.144Z,91.80
2023-04-29T09:20:33.402Z,91.80
2023-04-29T09:23:04.840Z,91.80
2023-04-29T09:25:34.532Z,91.70
2023-04-29T09:28:16.950Z,91.70
2023-04-29T09:30:50.788Z,91.70
2023-04-29T09:33:19.767Z,91.60
2023-04-29T09:35:48.878Z,91.60
2023-04-29T09:38:19.382Z,91.60
2023-04-29T09:40:59.109Z,91.60
2023-04-29T09:43:28.897Z,91.60
2023-04-29T09:45:59.420Z,91.60
2023-04-29T09:48:34.381Z,91.50
2023-04-29T09:51:04.272Z,91.90
2023-04-29T09:53:37.936Z,91.50
2023-04-29T09:56:07.462Z,91.50
2023-04-29T09:58:39.073Z,91.40
2023-04-29T10:01:12.780Z,91.30
2023-04-29T10:03:43.816Z,91.30
2023-04-29T10:06:13.215Z,91.30
2023-04-29T10:08:42.580Z,91.20
2023-04-29T10:11:13.005Z,91.30
2023-04-29T10:13:44.376Z,90.90
2023-04-29T10:16:21.373Z,90.70
2023-04-29T10:18:54.873Z,90.70
2023-04-29T10:21:29.755Z,90.60
2023-04-29T10:23:59.849Z,90.50
2023-04-29T10:26:30.238Z,90.50
2023-04-29T10:29:00.381Z,90.50
2023-04-29T10:31:31.353Z,90.50
2023-04-29T10:34:01.758Z,90.50
2023-04-29T10:36:31.662Z,90.60
2023-04-29T10:39:04.390Z,90.50
2023-04-29T10:41:45.779Z,90.40
2023-04-29T10:44:15.023Z,90.20
2023-04-29T10:46:45.491Z,90.10
2023-04-29T10:49:14.563Z,90.00
2023-04-29T10:51:45.273Z,89.40
2023-04-29T10:54:16.731Z,89.10
2023-04-29T10:56:50.091Z,88.90
2023-04-29T10:59:48.281Z,88.70
2023-04-29T11:02:20.111Z,88.10
2023-04-29T11:05:08.545Z,88.20
2023-04-29T11:07:37.889Z,88.40
2023-04-29T11:10:08.918Z,88.50
2023-04-29T11:12:37.987Z,88.60
2023-04-29T11:15:11.560Z,88.60
2023-04-29T11:17:42.064Z,88.70
2023-04-29T11:20:14.744Z,88.70
2023-04-29T11:22:52.032Z,89.00
2023-04-29T11:25:21.108Z,89.10
2023-04-29T11:27:52.735Z,89.30
2023-04-29T11:30:23.430Z,89.50
2023-04-29T11:32:53.977Z,89.80
2023-04-29T11:35:27.804Z,90.00
2023-04-29T11:37:57.042Z,90.10
2023-04-29T11:40:26.284Z,90.20
2023-04-29T11:42:55.366Z,90.40
2023-04-29T11:45:24.784Z,90.50
2023-04-29T11:47:56.089Z,90.60
2023-04-29T11:50:25.009Z,90.60
2023-04-29T11:52:54.202Z,90.70
2023-04-29T11:55:23.310Z,90.60
2023-04-29T11:57:52.599Z,90.60
2023-04-29T12:00:22.023Z,90.70
2023-04-29T12:02:51.411Z,90.80
2023-04-29T12:05:22.160Z,90.90
2023-04-29T12:07:51.669Z,90.90
2023-04-29T12:10:21.521Z,91.00
2023-04-29T12:12:50.862Z,91.20
2023-04-29T12:15:20.158Z,91.30
2023-04-29T12:17:49.312Z,91.40
2023-04-29T12:20:18.457Z,91.50
2023-04-29T12:22:48.983Z,91.50
2023-04-29T12:25:18.389Z,91.60
2023-04-29T12:27:47.419Z,91.70
2023-04-29T12:30:16.388Z,91.70
2023-04-29T12:32:48.682Z,91.70
2023-04-29T12:35:18.352Z,91.80
2023-04-29T12:37:53.525Z,91.90
2023-04-29T12:40:23.109Z,92.00
2023-04-29T12:42:54.401Z,91.90
2023-04-29T12:45:32.153Z,91.90
2023-04-29T12:48:03.304Z,92.00
2023-04-29T12:50:40.196Z,92.00
2023-04-29T12:53:11.739Z,92.00
2023-04-29T12:55:40.974Z,92.10
2023-04-29T12:58:10.405Z,92.10
2023-04-29T13:00:39.463Z,92.20
2023-04-29T13:03:08.776Z,92.20
2023-04-29T13:05:38.087Z,92.20
2023-04-29T13:08:07.278Z,92.20
2023-04-29T13:10:37.707Z,92.20
2023-04-29T13:13:09.634Z,92.20
2023-04-29T13:15:39.286Z,92.40
2023-04-29T13:18:08.410Z,92.40
2023-04-29T13:20:41.668Z,92.40
2023-04-29T13:23:12.101Z,92.40
2023-04-29T13:25:42.634Z,92.40
2023-04-29T13:28:12.246Z,92.40
2023-04-29T13:30:41.639Z,92.50
2023-04-29T13:33:13.276Z,92.60
2023-04-29T13:35:42.707Z,92.60
2023-04-29T13:38:11.718Z,92.70
2023-04-29T13:40:46.586Z,92.80
2023-04-29T13:43:23.392Z,92.80
2023-04-29T13:45:58.758Z,92.80
2023-04-29T13:54:10.476Z,92.80
2023-04-29T14:04:01.712Z,92.90
2023-04-29T14:06:32.619Z,92.90
2023-04-29T14:09:03.747Z,92.90
2023-04-29T14:11:36.896Z,92.90
2023-04-29T14:14:06.349Z,92.90
2023-04-29T14:16:35.427Z,92.80
2023-04-29T14:19:04.736Z,92.80
2023-04-29T14:21:33.879Z,92.90
2023-04-29T14:24:03.762Z,93.00
2023-04-29T14:26:34.379Z,93.00
2023-04-29T14:29:03.538Z,93.00
2023-04-29T14:31:36.316Z,93.00
2023-04-29T14:34:06.127Z,93.00
2023-04-29T14:36:35.200Z,92.90
2023-04-29T14:39:05.008Z,92.90
2023-04-29T14:41:35.459Z,92.90
2023-04-29T14:44:04.543Z,93.00
2023-04-29T14:46:33.623Z,93.00
2023-04-29T14:49:03.288Z,93.10
2023-04-29T14:51:32.482Z,93.10
2023-04-29T14:54:01.519Z,93.20
2023-04-29T14:56:30.922Z,93.30
2023-04-29T14:59:01.359Z,93.30
2023-04-29T15:01:32.071Z,93.40
2023-04-29T15:04:02.033Z,93.40
2023-04-29T15:06:32.384Z,93.40
2023-04-29T15:09:01.891Z,93.40
2023-04-29T15:11:30.927Z,93.40
2023-04-29T15:14:01.601Z,93.40
2023-04-29T15:16:31.706Z,93.50
2023-04-29T15:19:01.040Z,93.50
2023-04-29T15:21:30.248Z,93.50
2023-04-29T15:23:59.286Z,93.60
2023-04-29T15:26:28.655Z,93.60
2023-04-29T15:28:57.806Z,93.70
2023-04-29T15:31:29.327Z,93.70
2023-04-29T15:33:59.755Z,93.80
2023-04-29T15:36:31.004Z,93.80
2023-04-29T15:39:00.457Z,93.80
2023-04-29T15:41:29.557Z,93.80
2023-04-29T15:43:59.018Z,93.90
2023-04-29T15:46:31.713Z,93.80
2023-04-29T15:49:00.856Z,93.80
2023-04-29T15:51:30.040Z,93.80
2023-04-29T15:53:59.059Z,93.80
2023-04-29T15:56:28.096Z,93.90
2023-04-29T15:58:57.091Z,93.90
2023-04-29T16:01:28.279Z,93.90
2023-04-29T16:03:58.972Z,94.00
2023-04-29T16:06:28.575Z,93.90
2023-04-29T16:08:57.612Z,94.00
2023-04-29T16:11:26.827Z,94.00
2023-04-29T16:13:56.055Z,94.00
2023-04-29T16:16:25.741Z,94.10
2023-04-29T16:18:54.787Z,94.10
2023-04-29T16:21:26.096Z,94.20
2023-04-29T16:23:57.067Z,94.20
2023-04-29T16:26:26.768Z,94.30
2023-04-29T16:28:56.032Z,94.10
2023-04-29T16:31:25.182Z,94.10
2023-04-29T16:33:57.114Z,94.10
2023-04-29T16:36:27.974Z,94.10
2023-04-29T16:38:57.992Z,94.10
2023-04-29T16:41:27.236Z,94.10
2023-04-29T16:43:56.487Z,94.10
2023-04-29T16:46:26.054Z,94.10
2023-04-29T16:48:56.889Z,94.10
2023-04-29T16:51:27.587Z,94.10
2023-04-29T16:53:56.815Z,94.00
2023-04-29T16:56:25.881Z,94.00
2023-04-29T16:58:55.018Z,94.00
2023-04-29T17:01:24.400Z,93.90
2023-04-29T17:03:53.521Z,93.90
2023-04-29T17:06:22.721Z,93.80
2023-04-29T17:08:53.814Z,93.70
2023-04-29T17:11:23.003Z,93.70
2023-04-29T17:13:52.121Z,93.70
2023-04-29T17:16:21.341Z,93.70
2023-04-29T17:18:50.419Z,93.70
2023-04-29T17:21:19.488Z,93.70
2023-04-29T17:23:48.556Z,93.80
2023-04-29T17:26:18.997Z,93.80
2023-04-29T17:28:48.238Z,93.90
2023-04-29T17:31:17.317Z,93.90
2023-04-29T17:33:54.972Z,94.00
2023-04-29T17:36:24.243Z,94.10
2023-04-29T17:38:53.698Z,94.10
2023-04-29T17:41:24.155Z,94.20
2023-04-29T17:43:53.206Z,94.30
2023-04-29T17:46:22.259Z,94.30
2023-04-29T17:48:51.270Z,94.30
2023-04-29T17:51:20.311Z,94.30
2023-04-29T17:53:49.658Z,94.30
2023-04-29T17:56:18.750Z,94.30
2023-04-29T17:58:49.308Z,94.30
2023-04-29T18:01:18.455Z,94.30
2023-04-29T18:03:47.810Z,94.20
2023-04-29T18:06:16.819Z,94.20
2023-04-29T18:08:46.079Z,94.10
2023-04-29T18:11:15.068Z,94.10
2023-04-29T18:13:45.014Z,94.00
2023-04-29T18:16:15.989Z,94.00
2023-04-29T18:18:45.153Z,93.90
2023-04-29T18:21:14.278Z,93.90
2023-04-29T18:23:43.395Z,93.90
2023-04-29T18:26:12.452Z,93.80
2023-04-29T18:28:41.492Z,93.80
2023-04-29T18:31:10.801Z,93.70
2023-04-29T18:33:41.305Z,93.70
2023-04-29T18:36:10.314Z,93.70
2023-04-29T18:38:39.438Z,93.60
2023-04-29T18:41:08.729Z,93.60
2023-04-29T18:43:37.827Z,93.50
2023-04-29T18:46:07.076Z,93.40
2023-04-29T18:48:38.345Z,93.40
2023-04-29T18:51:08.818Z,93.30
2023-04-29T18:53:38.045Z,93.30
2023-04-29T18:56:08.467Z,93.30
2023-04-29T18:58:37.671Z,93.20
2023-04-29T19:01:06.917Z,93.20
2023-04-29T19:03:36.089Z,93.10
2023-04-29T19:06:05.436Z,93.10
2023-04-29T19:08:35.994Z,93.00
2023-04-29T19:11:05.147Z,93.00
2023-04-29T19:13:34.282Z,93.00
2023-04-29T19:16:03.328Z,93.00
2023-04-29T19:18:32.412Z,92.90
2023-04-29T19:21:01.952Z,92.90
2023-04-29T19:23:31.287Z,92.90
2023-04-29T19:26:01.683Z,92.90
2023-04-29T19:28:30.852Z,93.00
2023-04-29T19:30:59.955Z,93.00
2023-04-29T19:33:29.104Z,93.00
2023-04-29T19:35:58.204Z,93.00
2023-04-29T19:38:27.484Z,93.00
2023-04-29T19:40:57.039Z,93.00
2023-04-29T19:43:27.575Z,93.10
2023-04-29T19:45:56.597Z,93.10
2023-04-29T19:48:26.267Z,93.10
2023-04-29T19:50:55.291Z,93.10
2023-04-29T19:53:24.294Z,93.10
2023-04-29T19:55:54.241Z,93.10
2023-04-29T19:58:23.240Z,93.10
2023-04-29T20:00:54.008Z,93.20
2023-04-29T20:03:23.157Z,93.10
2023-04-29T20:05:52.498Z,93.10
2023-04-29T20:08:21.713Z,93.10
2023-04-29T20:10:50.844Z,93.20
2023-04-29T20:13:19.959Z,93.20
2023-04-29T20:15:49.165Z,93.20
2023-04-29T20:18:19.951Z,93.10
2023-04-29T20:20:49.104Z,93.10
2023-04-29T20:23:18.180Z,93.10
2023-04-29T20:25:47.352Z,93.20
2023-04-29T20:28:16.381Z,93.20
2023-04-29T20:30:45.410Z,93.20
2023-04-29T20:33:14.493Z,93.20
2023-04-29T20:35:44.988Z,93.20
2023-04-29T20:38:14.038Z,93.10
2023-04-29T20:40:43.749Z,93.10
2023-04-29T20:43:13.547Z,93.10
2023-04-29T20:45:42.959Z,93.10
2023-04-29T20:48:12.080Z,93.20
2023-04-29T20:50:41.388Z,93.20
2023-04-29T20:53:12.285Z,93.20
2023-04-29T20:55:41.382Z,93.20
2023-04-29T20:58:10.665Z,93.20
2023-04-29T21:00:40.742Z,93.20
2023-04-29T21:03:09.926Z,93.20
2023-04-29T21:05:38.998Z,93.20
2023-04-29T21:08:08.135Z,93.20
2023-04-29T21:10:38.541Z,93.20
2023-04-29T21:13:07.617Z,93.20
2023-04-29T21:15:36.775Z,93.20
2023-04-29T21:18:07.388Z,93.20
2023-04-29T21:20:36.523Z,93.20
2023-04-29T21:23:05.687Z,93.10
2023-04-29T21:25:34.718Z,93.10
2023-04-29T21:28:05.444Z,93.10
2023-04-29T21:30:34.544Z,93.10
2023-04-29T21:33:04.174Z,93.10
2023-04-29T21:35:33.357Z,93.10
2023-04-29T21:38:02.898Z,93.10
2023-04-29T21:40:32.002Z,93.10
2023-04-29T21:43:01.435Z,93.10
2023-04-29T21:45:32.012Z,93.10
2023-04-29T21:48:08.238Z,93.10
2023-04-29T21:50:37.317Z,93.00
2023-04-29T21:53:06.467Z,93.00
2023-04-29T21:55:35.563Z,93.00
2023-04-29T21:58:04.746Z,93.00
2023-04-29T22:00:36.660Z,93.00
2023-04-29T22:03:08.350Z,93.10
2023-04-29T22:05:37.839Z,93.10
2023-04-29T22:08:07.927Z,93.10
2023-04-29T22:10:40.163Z,93.10
2023-04-29T22:13:09.394Z,93.00
2023-04-29T22:15:40.122Z,93.10
2023-04-29T22:18:09.252Z,93.10
2023-04-29T22:20:38.381Z,93.10
2023-04-29T22:23:07.382Z,93.10
2023-04-29T22:25:36.561Z,93.00
2023-04-29T22:28:06.032Z,93.10
2023-04-29T22:30:35.057Z,93.10
2023-04-29T22:33:05.525Z,93.10
2023-04-29T22:35:34.571Z,93.10
2023-04-29T22:38:03.596Z,93.10
2023-04-29T22:40:32.611Z,93.10
2023-04-29T22:43:01.654Z,93.00
2023-04-29T22:45:32.024Z,93.00
2023-04-29T22:48:01.066Z,93.10
2023-04-29T22:50:31.674Z,93.00
2023-04-29T22:53:00.962Z,93.00
2023-04-29T22:55:29.957Z,93.10
2023-04-29T22:57:59.420Z,93.10
2023-04-29T23:00:28.483Z,93.00
2023-04-29T23:02:57.528Z,93.00
2023-04-29T23:05:26.832Z,93.10
2023-04-29T23:07:57.271Z,93.10
2023-04-29T23:10:26.454Z,93.10
2023-04-29T23:12:56.040Z,93.10
2023-04-29T23:15:25.838Z,93.00
2023-04-29T23:17:54.908Z,93.00
2023-04-29T23:20:24.643Z,93.00
2023-04-29T23:22:53.690Z,93.00
2023-04-29T23:25:24.114Z,92.90
2023-04-29T23:27:53.283Z,93.00
2023-04-29T23:30:22.382Z,93.00
2023-04-29T23:32:51.476Z,93.10
2023-04-29T23:35:21.303Z,93.20
2023-04-29T23:37:50.373Z,93.70
2023-04-29T23:40:19.545Z,93.40
2023-04-29T23:42:50.121Z,93.40
2023-04-29T23:45:19.403Z,93.50
2023-04-29T23:47:48.556Z,93.50
2023-04-29T23:50:17.843Z,93.50
2023-04-29T23:52:46.887Z,93.50
2023-04-29T23:55:15.912Z,93.50
2023-04-29T23:57:44.932Z,93.50
